Aérodrome :







RETROUVEZ-NOUS SUR...

 
LOGIN :

S'inscrire | Disclaimer

   EN    FR    IT 

 









Légende :    VFR   VFR Marginal   IFR   IFR Intensif   IFR Très Intensif
Visi : 
Plafond : 
>= 8 km
>= 3000ft
5 à 8 km
1000 à 3000 ft
1500m à 5 km
500 à 1000 ft
800 à 1500m
200 à 500 ft
< 800m
< 200 ft
Symboles :   Orages  Brouillard  Fortes neiges  Fortes précipitations  Vent > 20 kt






- Altitude de l'aérodrome : 461 ft
- Code IATA : YYT


CYYT - St John's Int

DERNIER METAR :
  • 261700Z 06005KT 15SM FEW008 BKN100 01/M01 A2989 RMK SF2AC3 SLP130

METARs EXPIRÉS :
  • 261648Z 05006KT 15SM FEW008 BKN100 01/M01 A2989 RMK SF2AC4 SLP131
  • 261600Z 11003KT 080V150 15SM BKN007 OVC060 00/M01 A2990 RMK SF5SC3 SLP132
  • 261548Z 11004KT 12SM BKN006 OVC025 00/M01 A2990 RMK SF7SC1 SLP134
  • 261500Z 08004KT 8SM -SN OVC005 M00/M01 A2993 RMK SF8 SLP143

TAF TAF CYYT
Valide du 26 à 12h jusqu'au 27 à 12h UTC


261138Z 2612/2712 VRB03KT P6SM FEW008 OVC070
TEMPO 2612/2618 5SM -SN BKN008 OVC070
FM261800 33007KT 6SM BR BKN008 BKN060
PROB30 2618/2621 2SM -FZDZ BR OVC003
FM262100 01010KT 6SM -SN BKN005 OVC010
PROB30 2621/2706 2SM -SN -FZDZ BR
FM270600 01012KT 6SM -SN SCT006 OVC012
PROB30 2706/2712 2SM -FZDZ BR BKN006 RMK NXT FCST BY 261800Z



MET'MAP, la Météo Aéronautique d'un coup d'oeil ! - Copyright ORBIFLY Décembre 2007 - Disclaimer

ORBIFLY MET'MAP TEAM :

Programmation & Développement : Alexandra Zaïnal
Sur une idée originale de : Baudouin d'Aumeries
Assistance à la programmation : Marc-Olivier Méhu
Soutien technique & logistique : Manuel Goepfert

Contact : metmap@orbifly.com




SOURCES & CREDITS :

   NOAA